sensor_id;sensor_type;location;lat;lon;timestamp;pressure;altitude;pressure_sealevel;temperature;humidity
51053;BME280;37093;37.716;-122.060;2024-02-26T00:00:41;99883.96;;;26.20;28.72
51053;BME280;37093;37.716;-122.060;2024-02-26T00:03:07;99879.31;;;23.91;31.44
51053;BME280;37093;37.716;-122.060;2024-02-26T00:05:32;99881.22;;;23.60;31.46
51053;BME280;37093;37.716;-122.060;2024-02-26T00:07:58;99880.67;;;23.06;32.91
51053;BME280;37093;37.716;-122.060;2024-02-26T00:10:23;99879.27;;;22.49;33.59
51053;BME280;37093;37.716;-122.060;2024-02-26T00:12:47;99876.55;;;23.19;33.34
51053;BME280;37093;37.716;-122.060;2024-02-26T00:15:12;99884.37;;;21.66;34.96
51053;BME280;37093;37.716;-122.060;2024-02-26T00:17:37;99887.86;;;23.30;33.69
51053;BME280;37093;37.716;-122.060;2024-02-26T00:20:03;99899.88;;;20.30;36.99
51053;BME280;37093;37.716;-122.060;2024-02-26T00:22:28;99902.75;;;21.78;36.68
51053;BME280;37093;37.716;-122.060;2024-02-26T00:24:53;99899.53;;;22.56;35.57
51053;BME280;37093;37.716;-122.060;2024-02-26T00:27:17;99903.46;;;21.60;36.47
51053;BME280;37093;37.716;-122.060;2024-02-26T00:29:49;99900.69;;;20.13;38.28
51053;BME280;37093;37.716;-122.060;2024-02-26T00:32:09;99903.11;;;20.39;39.07
51053;BME280;37093;37.716;-122.060;2024-02-26T00:34:32;99906.71;;;18.42;43.58
51053;BME280;37093;37.716;-122.060;2024-02-26T00:36:58;99909.66;;;18.75;46.12
51053;BME280;37093;37.716;-122.060;2024-02-26T00:39:33;99915.16;;;18.54;48.21
51053;BME280;37093;37.716;-122.060;2024-02-26T00:41:51;99923.26;;;17.66;52.89
51053;BME280;37093;37.716;-122.060;2024-02-26T00:44:13;99927.31;;;18.35;50.07
51053;BME280;37093;37.716;-122.060;2024-02-26T00:46:39;99943.78;;;16.55;55.86
51053;BME280;37093;37.716;-122.060;2024-02-26T00:49:06;99950.20;;;17.31;55.56
51053;BME280;37093;37.716;-122.060;2024-02-26T00:51:29;99952.27;;;16.22;60.08
51053;BME280;37093;37.716;-122.060;2024-02-26T00:53:53;99952.83;;;17.41;54.46
51053;BME280;37093;37.716;-122.060;2024-02-26T00:56:18;99947.44;;;18.12;50.82
51053;BME280;37093;37.716;-122.060;2024-02-26T00:58:43;99957.05;;;17.25;51.28
51053;BME280;37093;37.716;-122.060;2024-02-26T01:01:08;99966.54;;;17.64;49.05
51053;BME280;37093;37.716;-122.060;2024-02-26T01:03:34;99966.75;;;17.72;47.47
51053;BME280;37093;37.716;-122.060;2024-02-26T01:06:00;99976.06;;;16.23;53.77
51053;BME280;37093;37.716;-122.060;2024-02-26T01:08:24;99975.91;;;17.50;52.06
51053;BME280;37093;37.716;-122.060;2024-02-26T01:10:49;99977.99;;;17.09;51.59
51053;BME280;37093;37.716;-122.060;2024-02-26T01:13:14;99974.66;;;18.21;49.17
51053;BME280;37093;37.716;-122.060;2024-02-26T01:15:38;99982.54;;;17.63;50.48
51053;BME280;37093;37.716;-122.060;2024-02-26T01:18:06;99988.64;;;17.14;51.50
51053;BME280;37093;37.716;-122.060;2024-02-26T01:20:29;99989.53;;;17.06;53.69
51053;BME280;37093;37.716;-122.060;2024-02-26T01:22:56;99991.17;;;15.75;59.63
51053;BME280;37093;37.716;-122.060;2024-02-26T01:25:19;99993.42;;;16.59;56.51
51053;BME280;37093;37.716;-122.060;2024-02-26T01:27:44;99993.18;;;16.97;55.21
51053;BME280;37093;37.716;-122.060;2024-02-26T01:30:10;99995.94;;;15.07;58.10
51053;BME280;37093;37.716;-122.060;2024-02-26T01:32:34;99994.00;;;15.16;57.35
51053;BME280;37093;37.716;-122.060;2024-02-26T01:34:59;99990.21;;;16.26;55.29
51053;BME280;37093;37.716;-122.060;2024-02-26T01:37:26;99990.78;;;17.82;50.82
51053;BME280;37093;37.716;-122.060;2024-02-26T01:39:49;99991.39;;;17.96;49.65
51053;BME280;37093;37.716;-122.060;2024-02-26T01:42:14;99994.88;;;17.70;49.24
51053;BME280;37093;37.716;-122.060;2024-02-26T01:44:40;100001.65;;;16.20;54.67
51053;BME280;37093;37.716;-122.060;2024-02-26T01:47:04;100005.10;;;17.65;52.17
51053;BME280;37093;37.716;-122.060;2024-02-26T01:49:33;100001.86;;;17.86;51.42
51053;BME280;37093;37.716;-122.060;2024-02-26T01:51:56;99995.57;;;19.02;47.77
51053;BME280;37093;37.716;-122.060;2024-02-26T01:54:20;99997.98;;;19.27;46.16
51053;BME280;37093;37.716;-122.060;2024-02-26T01:56:44;100001.67;;;19.77;44.85
51053;BME280;37093;37.716;-122.060;2024-02-26T01:59:10;100006.35;;;18.65;46.36
51053;BME280;37093;37.716;-122.060;2024-02-26T02:01:38;100006.73;;;19.70;44.31
51053;BME280;37093;37.716;-122.060;2024-02-26T02:04:00;100009.13;;;18.18;46.29
51053;BME280;37093;37.716;-122.060;2024-02-26T02:06:26;100010.15;;;19.32;45.19
51053;BME280;37093;37.716;-122.060;2024-02-26T02:08:51;100012.10;;;19.56;44.17
51053;BME280;37093;37.716;-122.060;2024-02-26T02:11:15;100011.22;;;19.00;46.48
51053;BME280;37093;37.716;-122.060;2024-02-26T02:13:40;100013.59;;;20.30;43.12
51053;BME280;37093;37.716;-122.060;2024-02-26T02:16:05;100018.09;;;19.91;43.10
51053;BME280;37093;37.716;-122.060;2024-02-26T02:18:33;100016.97;;;20.76;42.22
51053;BME280;37093;37.716;-122.060;2024-02-26T02:20:55;100023.51;;;18.60;45.81
51053;BME280;37093;37.716;-122.060;2024-02-26T02:23:22;100028.95;;;19.44;45.29
51053;BME280;37093;37.716;-122.060;2024-02-26T02:25:45;100029.59;;;19.54;45.43
51053;BME280;37093;37.716;-122.060;2024-02-26T02:28:11;100032.62;;;20.28;43.69
51053;BME280;37093;37.716;-122.060;2024-02-26T02:30:37;100036.24;;;20.36;43.16
51053;BME280;37093;37.716;-122.060;2024-02-26T02:33:02;100039.54;;;20.69;42.74
51053;BME280;37093;37.716;-122.060;2024-02-26T02:35:28;100040.20;;;20.00;44.14
51053;BME280;37093;37.716;-122.060;2024-02-26T02:37:55;100037.20;;;19.73;44.65
51053;BME280;37093;37.716;-122.060;2024-02-26T02:40:16;100038.38;;;19.97;44.77
51053;BME280;37093;37.716;-122.060;2024-02-26T02:42:41;100038.94;;;20.17;44.97
51053;BME280;37093;37.716;-122.060;2024-02-26T02:45:09;100035.94;;;19.50;45.35
51053;BME280;37093;37.716;-122.060;2024-02-26T02:47:31;100037.54;;;18.52;50.28
51053;BME280;37093;37.716;-122.060;2024-02-26T02:49:58;100032.97;;;19.79;47.21
51053;BME280;37093;37.716;-122.060;2024-02-26T02:52:21;100033.74;;;19.99;46.70
51053;BME280;37093;37.716;-122.060;2024-02-26T02:54:47;100034.17;;;20.72;44.92
51053;BME280;37093;37.716;-122.060;2024-02-26T02:57:12;100034.23;;;21.22;44.19
51053;BME280;37093;37.716;-122.060;2024-02-26T02:59:37;100038.14;;;21.27;43.38
51053;BME280;37093;37.716;-122.060;2024-02-26T03:02:03;100040.62;;;21.03;43.77
51053;BME280;37093;37.716;-122.060;2024-02-26T03:04:27;100045.47;;;20.89;44.10
51053;BME280;37093;37.716;-122.060;2024-02-26T03:06:53;100045.77;;;21.33;42.59
51053;BME280;37093;37.716;-122.060;2024-02-26T03:09:18;100045.07;;;21.47;42.26
51053;BME280;37093;37.716;-122.060;2024-02-26T03:11:44;100044.32;;;21.58;41.67
51053;BME280;37093;37.716;-122.060;2024-02-26T03:14:08;100046.72;;;21.58;41.48
51053;BME280;37093;37.716;-122.060;2024-02-26T03:16:33;100049.94;;;21.57;41.61
51053;BME280;37093;37.716;-122.060;2024-02-26T03:18:58;100054.68;;;21.54;41.56
51053;BME280;37093;37.716;-122.060;2024-02-26T03:21:23;100061.99;;;20.32;43.46
51053;BME280;37093;37.716;-122.060;2024-02-26T03:23:48;100061.36;;;21.12;42.13
51053;BME280;37093;37.716;-122.060;2024-02-26T03:26:14;100057.91;;;20.85;42.70
51053;BME280;37093;37.716;-122.060;2024-02-26T03:28:41;100057.30;;;20.90;42.17
51053;BME280;37093;37.716;-122.060;2024-02-26T03:31:03;100058.51;;;20.41;43.03
51053;BME280;37093;37.716;-122.060;2024-02-26T03:33:31;100053.65;;;19.57;45.18
51053;BME280;37093;37.716;-122.060;2024-02-26T03:35:57;100048.02;;;19.85;45.21
51053;BME280;37093;37.716;-122.060;2024-02-26T03:38:25;100051.76;;;19.53;45.98
51053;BME280;37093;37.716;-122.060;2024-02-26T03:40:45;100053.96;;;18.74;46.95
51053;BME280;37093;37.716;-122.060;2024-02-26T03:43:10;100049.32;;;19.92;45.58
51053;BME280;37093;37.716;-122.060;2024-02-26T03:45:36;100051.27;;;19.88;45.69
51053;BME280;37093;37.716;-122.060;2024-02-26T03:48:00;100058.65;;;20.37;44.44
51053;BME280;37093;37.716;-122.060;2024-02-26T03:50:27;100064.21;;;20.63;43.65
51053;BME280;37093;37.716;-122.060;2024-02-26T03:52:51;100061.27;;;20.91;43.08
51053;BME280;37093;37.716;-122.060;2024-02-26T03:55:16;100061.02;;;20.99;42.89
51053;BME280;37093;37.716;-122.060;2024-02-26T03:57:42;100064.37;;;21.03;42.52
51053;BME280;37093;37.716;-122.060;2024-02-26T04:00:07;100061.47;;;21.20;42.04
51053;BME280;37093;37.716;-122.060;2024-02-26T04:02:32;100064.91;;;21.22;41.71
51053;BME280;37093;37.716;-122.060;2024-02-26T04:05:02;100063.10;;;21.51;41.33
51053;BME280;37093;37.716;-122.060;2024-02-26T04:07:22;100065.13;;;21.59;41.27
51053;BME280;37093;37.716;-122.060;2024-02-26T04:09:48;100060.47;;;21.46;41.11
51053;BME280;37093;37.716;-122.060;2024-02-26T04:12:13;100058.22;;;21.64;40.93
51053;BME280;37093;37.716;-122.060;2024-02-26T04:14:39;100061.24;;;21.45;40.91
51053;BME280;37093;37.716;-122.060;2024-02-26T04:17:03;100066.29;;;21.48;40.72
51053;BME280;37093;37.716;-122.060;2024-02-26T04:19:28;100067.93;;;21.59;40.87
51053;BME280;37093;37.716;-122.060;2024-02-26T04:21:53;100065.72;;;21.55;40.72
51053;BME280;37093;37.716;-122.060;2024-02-26T04:24:20;100065.18;;;21.59;40.33
51053;BME280;37093;37.716;-122.060;2024-02-26T04:26:44;100072.33;;;21.50;40.42
51053;BME280;37093;37.716;-122.060;2024-02-26T04:29:08;100073.97;;;21.44;40.78
51053;BME280;37093;37.716;-122.060;2024-02-26T04:31:33;100070.86;;;21.14;41.08
51053;BME280;37093;37.716;-122.060;2024-02-26T04:33:59;100064.74;;;21.45;41.12
51053;BME280;37093;37.716;-122.060;2024-02-26T04:36:24;100067.07;;;21.36;41.13
51053;BME280;37093;37.716;-122.060;2024-02-26T04:38:50;100069.90;;;21.18;41.26
51053;BME280;37093;37.716;-122.060;2024-02-26T04:41:14;100071.71;;;21.23;41.12
51053;BME280;37093;37.716;-122.060;2024-02-26T04:43:40;100074.35;;;21.47;41.03
51053;BME280;37093;37.716;-122.060;2024-02-26T04:46:04;100075.17;;;21.25;40.84
51053;BME280;37093;37.716;-122.060;2024-02-26T04:48:29;100073.67;;;21.23;40.76
51053;BME280;37093;37.716;-122.060;2024-02-26T04:50:57;100078.50;;;21.26;41.14
51053;BME280;37093;37.716;-122.060;2024-02-26T04:53:19;100083.58;;;21.25;41.37
51053;BME280;37093;37.716;-122.060;2024-02-26T04:55:45;100092.65;;;21.16;41.20
51053;BME280;37093;37.716;-122.060;2024-02-26T04:58:09;100095.71;;;21.16;41.02
51053;BME280;37093;37.716;-122.060;2024-02-26T05:00:34;100098.32;;;21.33;40.89
51053;BME280;37093;37.716;-122.060;2024-02-26T05:03:00;100099.46;;;21.35;40.82
51053;BME280;37093;37.716;-122.060;2024-02-26T05:05:26;100103.43;;;21.07;40.96
51053;BME280;37093;37.716;-122.060;2024-02-26T05:07:50;100108.57;;;21.31;40.92
51053;BME280;37093;37.716;-122.060;2024-02-26T05:10:15;100111.94;;;21.01;41.21
51053;BME280;37093;37.716;-122.060;2024-02-26T05:12:40;100118.58;;;21.17;41.39
51053;BME280;37093;37.716;-122.060;2024-02-26T05:15:06;100122.99;;;20.93;41.58
51053;BME280;37093;37.716;-122.060;2024-02-26T05:17:30;100130.78;;;20.98;41.54
51053;BME280;37093;37.716;-122.060;2024-02-26T05:19:57;100134.18;;;20.94;40.69
51053;BME280;37093;37.716;-122.060;2024-02-26T05:22:20;100134.71;;;20.85;40.56
51053;BME280;37093;37.716;-122.060;2024-02-26T05:24:45;100131.97;;;20.78;41.28
51053;BME280;37093;37.716;-122.060;2024-02-26T05:27:11;100130.90;;;20.88;41.53
51053;BME280;37093;37.716;-122.060;2024-02-26T05:29:35;100128.68;;;20.81;42.24
51053;BME280;37093;37.716;-122.060;2024-02-26T05:32:01;100124.16;;;20.94;42.52
51053;BME280;37093;37.716;-122.060;2024-02-26T05:34:26;100127.63;;;20.95;43.04
51053;BME280;37093;37.716;-122.060;2024-02-26T05:36:50;100126.67;;;20.95;42.90
51053;BME280;37093;37.716;-122.060;2024-02-26T05:39:16;100126.97;;;21.03;42.99
51053;BME280;37093;37.716;-122.060;2024-02-26T05:41:41;100131.34;;;20.99;43.12
51053;BME280;37093;37.716;-122.060;2024-02-26T05:44:05;100134.72;;;21.02;43.10
51053;BME280;37093;37.716;-122.060;2024-02-26T05:46:31;100133.92;;;20.90;42.86
51053;BME280;37093;37.716;-122.060;2024-02-26T05:48:57;100138.52;;;20.97;42.21
51053;BME280;37093;37.716;-122.060;2024-02-26T05:51:22;100137.08;;;20.84;43.48
51053;BME280;37093;37.716;-122.060;2024-02-26T05:53:47;100137.55;;;20.98;43.43
51053;BME280;37093;37.716;-122.060;2024-02-26T05:56:13;100137.28;;;20.64;43.98
51053;BME280;37093;37.716;-122.060;2024-02-26T05:58:38;100140.10;;;20.67;43.78
51053;BME280;37093;37.716;-122.060;2024-02-26T06:01:03;100144.98;;;20.91;43.51
51053;BME280;37093;37.716;-122.060;2024-02-26T06:03:29;100148.17;;;21.02;42.99
51053;BME280;37093;37.716;-122.060;2024-02-26T06:05:53;100152.91;;;20.95;42.93
51053;BME280;37093;37.716;-122.060;2024-02-26T06:08:18;100154.18;;;20.96;43.71
51053;BME280;37093;37.716;-122.060;2024-02-26T06:10:43;100149.75;;;20.92;43.50
51053;BME280;37093;37.716;-122.060;2024-02-26T06:13:09;100150.69;;;21.03;43.23
51053;BME280;37093;37.716;-122.060;2024-02-26T06:15:34;100149.18;;;20.74;43.43
51053;BME280;37093;37.716;-122.060;2024-02-26T06:17:59;100148.28;;;21.04;43.79
51053;BME280;37093;37.716;-122.060;2024-02-26T06:20:23;100152.34;;;20.81;43.39
51053;BME280;37093;37.716;-122.060;2024-02-26T06:22:48;100158.88;;;21.15;43.00
51053;BME280;37093;37.716;-122.060;2024-02-26T06:25:14;100163.84;;;19.76;46.26
51053;BME280;37093;37.716;-122.060;2024-02-26T06:27:39;100165.06;;;20.66;44.41
51053;BME280;37093;37.716;-122.060;2024-02-26T06:30:04;100163.46;;;20.64;44.66
51053;BME280;37093;37.716;-122.060;2024-02-26T06:32:29;100166.88;;;20.68;44.71
51053;BME280;37093;37.716;-122.060;2024-02-26T06:34:56;100166.24;;;20.65;45.13
51053;BME280;37093;37.716;-122.060;2024-02-26T06:37:18;100163.67;;;20.59;45.27
51053;BME280;37093;37.716;-122.060;2024-02-26T06:39:45;100159.19;;;20.29;46.24
51053;BME280;37093;37.716;-122.060;2024-02-26T06:42:09;100165.54;;;19.61;48.13
51053;BME280;37093;37.716;-122.060;2024-02-26T06:44:34;100164.05;;;19.95;47.62
51053;BME280;37093;37.716;-122.060;2024-02-26T06:46:59;100161.74;;;18.83;51.49
51053;BME280;37093;37.716;-122.060;2024-02-26T06:49:24;100155.90;;;18.87;52.10
51053;BME280;37093;37.716;-122.060;2024-02-26T06:51:54;100151.16;;;19.60;50.00
51053;BME280;37093;37.716;-122.060;2024-02-26T06:54:14;100147.48;;;19.78;49.52
51053;BME280;37093;37.716;-122.060;2024-02-26T06:56:41;100150.27;;;19.82;48.67
51053;BME280;37093;37.716;-122.060;2024-02-26T06:59:05;100152.15;;;19.74;49.56
51053;BME280;37093;37.716;-122.060;2024-02-26T07:01:29;100152.42;;;19.23;50.60
51053;BME280;37093;37.716;-122.060;2024-02-26T07:03:57;100151.13;;;19.74;49.35
51053;BME280;37093;37.716;-122.060;2024-02-26T07:06:22;100154.47;;;19.62;49.39
51053;BME280;37093;37.716;-122.060;2024-02-26T07:08:44;100148.04;;;19.98;48.63
51053;BME280;37093;37.716;-122.060;2024-02-26T07:11:10;100147.65;;;20.12;47.86
51053;BME280;37093;37.716;-122.060;2024-02-26T07:13:34;100152.48;;;20.12;47.17
51053;BME280;37093;37.716;-122.060;2024-02-26T07:16:01;100151.08;;;20.36;46.37
51053;BME280;37093;37.716;-122.060;2024-02-26T07:18:25;100150.99;;;20.25;46.49
51053;BME280;37093;37.716;-122.060;2024-02-26T07:20:52;100149.84;;;20.53;46.13
51053;BME280;37093;37.716;-122.060;2024-02-26T07:23:16;100143.66;;;20.48;45.97
51053;BME280;37093;37.716;-122.060;2024-02-26T07:25:40;100137.19;;;20.67;45.51
51053;BME280;37093;37.716;-122.060;2024-02-26T07:28:08;100135.63;;;20.72;45.11
51053;BME280;37093;37.716;-122.060;2024-02-26T07:30:31;100134.49;;;20.78;44.91
51053;BME280;37093;37.716;-122.060;2024-02-26T07:32:56;100134.94;;;20.81;44.65
51053;BME280;37093;37.716;-122.060;2024-02-26T07:35:22;100130.25;;;20.79;44.46
51053;BME280;37093;37.716;-122.060;2024-02-26T07:37:50;100128.84;;;20.88;44.44
51053;BME280;37093;37.716;-122.060;2024-02-26T07:40:15;100128.73;;;20.79;44.21
51053;BME280;37093;37.716;-122.060;2024-02-26T07:42:37;100124.66;;;20.93;43.86
51053;BME280;37093;37.716;-122.060;2024-02-26T07:45:04;100114.47;;;20.84;44.04
51053;BME280;37093;37.716;-122.060;2024-02-26T07:47:30;100116.74;;;20.88;43.92
51053;BME280;37093;37.716;-122.060;2024-02-26T07:49:53;100124.03;;;20.77;44.09
51053;BME280;37093;37.716;-122.060;2024-02-26T07:52:18;100127.34;;;20.76;43.97
51053;BME280;37093;37.716;-122.060;2024-02-26T07:54:42;100121.87;;;20.79;43.85
51053;BME280;37093;37.716;-122.060;2024-02-26T07:57:09;100125.67;;;20.78;43.94
51053;BME280;37093;37.716;-122.060;2024-02-26T07:59:32;100134.07;;;20.89;43.87
51053;BME280;37093;37.716;-122.060;2024-02-26T08:01:58;100136.23;;;20.76;43.76
51053;BME280;37093;37.716;-122.060;2024-02-26T08:04:23;100137.47;;;20.88;43.66
51053;BME280;37093;37.716;-122.060;2024-02-26T08:06:48;100133.12;;;20.82;43.73
51053;BME280;37093;37.716;-122.060;2024-02-26T08:09:12;100132.68;;;20.74;43.86
51053;BME280;37093;37.716;-122.060;2024-02-26T08:11:38;100133.11;;;20.71;43.80
51053;BME280;37093;37.716;-122.060;2024-02-26T08:14:05;100130.76;;;20.66;43.37
51053;BME280;37093;37.716;-122.060;2024-02-26T08:16:30;100131.59;;;20.67;43.39
51053;BME280;37093;37.716;-122.060;2024-02-26T08:18:57;100126.47;;;20.72;43.44
51053;BME280;37093;37.716;-122.060;2024-02-26T08:21:21;100128.35;;;20.63;43.77
51053;BME280;37093;37.716;-122.060;2024-02-26T08:23:46;100134.01;;;20.70;43.94
51053;BME280;37093;37.716;-122.060;2024-02-26T08:26:10;100132.68;;;20.52;44.04
51053;BME280;37093;37.716;-122.060;2024-02-26T08:28:36;100129.73;;;20.62;44.00
51053;BME280;37093;37.716;-122.060;2024-02-26T08:31:01;100123.96;;;20.46;44.43
51053;BME280;37093;37.716;-122.060;2024-02-26T08:33:25;100120.93;;;20.59;43.49
51053;BME280;37093;37.716;-122.060;2024-02-26T08:35:57;100124.63;;;20.61;43.74
51053;BME280;37093;37.716;-122.060;2024-02-26T08:38:15;100126.58;;;20.58;44.02
51053;BME280;37093;37.716;-122.060;2024-02-26T08:40:40;100126.53;;;20.62;43.98
51053;BME280;37093;37.716;-122.060;2024-02-26T08:43:05;100126.81;;;20.48;44.40
51053;BME280;37093;37.716;-122.060;2024-02-26T08:45:30;100126.33;;;20.45;44.37
51053;BME280;37093;37.716;-122.060;2024-02-26T08:47:58;100122.80;;;20.38;44.24
51053;BME280;37093;37.716;-122.060;2024-02-26T08:50:22;100122.35;;;19.98;44.20
51053;BME280;37093;37.716;-122.060;2024-02-26T08:52:46;100123.48;;;20.74;43.42
51053;BME280;37093;37.716;-122.060;2024-02-26T08:55:11;100121.49;;;20.52;43.93
51053;BME280;37093;37.716;-122.060;2024-02-26T08:57:37;100118.90;;;20.61;44.52
51053;BME280;37093;37.716;-122.060;2024-02-26T09:00:06;100117.29;;;20.48;44.49
51053;BME280;37093;37.716;-122.060;2024-02-26T09:02:28;100113.19;;;20.56;44.00
51053;BME280;37093;37.716;-122.060;2024-02-26T09:04:53;100112.40;;;20.38;43.67
51053;BME280;37093;37.716;-122.060;2024-02-26T09:07:17;100117.49;;;20.38;43.81
51053;BME280;37093;37.716;-122.060;2024-02-26T09:09:42;100117.13;;;20.30;44.27
51053;BME280;37093;37.716;-122.060;2024-02-26T09:12:08;100111.08;;;20.36;44.95
51053;BME280;37093;37.716;-122.060;2024-02-26T09:14:37;100110.56;;;20.21;44.41
51053;BME280;37093;37.716;-122.060;2024-02-26T09:16:57;100111.61;;;20.34;44.13
51053;BME280;37093;37.716;-122.060;2024-02-26T09:19:24;100110.57;;;20.17;44.16
51053;BME280;37093;37.716;-122.060;2024-02-26T09:21:47;100104.43;;;20.40;44.76
51053;BME280;37093;37.716;-122.060;2024-02-26T09:24:13;100101.24;;;20.06;44.82
51053;BME280;37093;37.716;-122.060;2024-02-26T09:26:37;100102.00;;;20.23;44.80
51053;BME280;37093;37.716;-122.060;2024-02-26T09:29:03;100107.29;;;20.03;44.38
51053;BME280;37093;37.716;-122.060;2024-02-26T09:31:28;100098.53;;;20.07;44.15
51053;BME280;37093;37.716;-122.060;2024-02-26T09:33:53;100092.66;;;20.10;44.32
51053;BME280;37093;37.716;-122.060;2024-02-26T09:36:18;100091.96;;;20.00;44.54
51053;BME280;37093;37.716;-122.060;2024-02-26T09:38:43;100092.61;;;20.00;44.56
51053;BME280;37093;37.716;-122.060;2024-02-26T09:41:09;100088.64;;;20.23;44.66
51053;BME280;37093;37.716;-122.060;2024-02-26T09:43:37;100088.12;;;20.14;44.44
51053;BME280;37093;37.716;-122.060;2024-02-26T09:45:58;100084.87;;;20.07;44.04
51053;BME280;37093;37.716;-122.060;2024-02-26T09:48:24;100078.49;;;20.10;43.77
51053;BME280;37093;37.716;-122.060;2024-02-26T09:50:48;100073.07;;;20.02;44.03
51053;BME280;37093;37.716;-122.060;2024-02-26T09:53:14;100067.57;;;20.05;44.23
51053;BME280;37093;37.716;-122.060;2024-02-26T09:55:38;100066.38;;;19.94;44.67
51053;BME280;37093;37.716;-122.060;2024-02-26T09:58:03;100064.44;;;19.91;44.67
51053;BME280;37093;37.716;-122.060;2024-02-26T10:00:32;100064.83;;;19.64;44.40
51053;BME280;37093;37.716;-122.060;2024-02-26T10:02:55;100062.71;;;19.90;45.75
51053;BME280;37093;37.716;-122.060;2024-02-26T10:05:20;100058.53;;;19.73;45.26
51053;BME280;37093;37.716;-122.060;2024-02-26T10:07:46;100060.50;;;20.06;45.30
51053;BME280;37093;37.716;-122.060;2024-02-26T10:10:10;100063.98;;;20.02;45.23
51053;BME280;37093;37.716;-122.060;2024-02-26T10:12:34;100062.49;;;20.10;44.24
51053;BME280;37093;37.716;-122.060;2024-02-26T10:14:59;100061.11;;;20.02;45.26
51053;BME280;37093;37.716;-122.060;2024-02-26T10:17:25;100061.17;;;19.96;46.98
51053;BME280;37093;37.716;-122.060;2024-02-26T10:19:48;100059.57;;;19.94;47.44
51053;BME280;37093;37.716;-122.060;2024-02-26T10:22:14;100060.97;;;20.16;47.61
51053;BME280;37093;37.716;-122.060;2024-02-26T10:24:40;100060.17;;;20.00;47.23
51053;BME280;37093;37.716;-122.060;2024-02-26T10:27:04;100052.13;;;19.94;47.24
51053;BME280;37093;37.716;-122.060;2024-02-26T10:29:30;100046.03;;;20.06;46.73
51053;BME280;37093;37.716;-122.060;2024-02-26T10:31:56;100043.95;;;19.95;47.35
51053;BME280;37093;37.716;-122.060;2024-02-26T10:34:22;100041.00;;;20.09;47.30
51053;BME280;37093;37.716;-122.060;2024-02-26T10:36:45;100035.69;;;20.01;45.80
51053;BME280;37093;37.716;-122.060;2024-02-26T10:39:09;100025.39;;;20.13;45.84
51053;BME280;37093;37.716;-122.060;2024-02-26T10:41:36;100022.43;;;19.87;46.46
51053;BME280;37093;37.716;-122.060;2024-02-26T10:44:02;100019.49;;;19.89;47.31
51053;BME280;37093;37.716;-122.060;2024-02-26T10:46:25;100016.32;;;19.87;47.61
51053;BME280;37093;37.716;-122.060;2024-02-26T10:48:57;100014.41;;;19.01;50.62
51053;BME280;37093;37.716;-122.060;2024-02-26T10:51:15;100011.36;;;19.52;48.10
51053;BME280;37093;37.716;-122.060;2024-02-26T10:53:43;100010.42;;;19.62;47.06
51053;BME280;37093;37.716;-122.060;2024-02-26T10:56:06;100006.59;;;19.73;47.21
51053;BME280;37093;37.716;-122.060;2024-02-26T10:58:31;100010.07;;;19.69;45.94
51053;BME280;37093;37.716;-122.060;2024-02-26T11:00:58;100011.77;;;19.57;45.67
51053;BME280;37093;37.716;-122.060;2024-02-26T11:03:23;100013.33;;;19.75;46.09
51053;BME280;37093;37.716;-122.060;2024-02-26T11:05:47;100012.51;;;19.66;46.12
51053;BME280;37093;37.716;-122.060;2024-02-26T11:08:12;100012.98;;;19.81;46.74
51053;BME280;37093;37.716;-122.060;2024-02-26T11:10:36;100010.58;;;19.68;46.78
51053;BME280;37093;37.716;-122.060;2024-02-26T11:13:03;100010.45;;;19.89;46.23
51053;BME280;37093;37.716;-122.060;2024-02-26T11:15:28;100013.46;;;19.82;46.50
51053;BME280;37093;37.716;-122.060;2024-02-26T11:17:54;100005.12;;;19.57;46.26
51053;BME280;37093;37.716;-122.060;2024-02-26T11:20:17;100005.54;;;19.46;46.22
51053;BME280;37093;37.716;-122.060;2024-02-26T11:22:41;100004.35;;;19.43;46.30
51053;BME280;37093;37.716;-122.060;2024-02-26T11:25:12;100014.03;;;19.42;47.34
51053;BME280;37093;37.716;-122.060;2024-02-26T11:27:34;100030.31;;;19.44;47.01
51053;BME280;37093;37.716;-122.060;2024-02-26T11:29:57;100038.15;;;19.49;47.40
51053;BME280;37093;37.716;-122.060;2024-02-26T11:32:21;100037.61;;;19.37;47.55
51053;BME280;37093;37.716;-122.060;2024-02-26T11:34:46;100037.54;;;19.47;47.71
51053;BME280;37093;37.716;-122.060;2024-02-26T11:37:17;100045.92;;;19.50;47.42
51053;BME280;37093;37.716;-122.060;2024-02-26T11:39:37;100043.76;;;19.42;46.87
51053;BME280;37093;37.716;-122.060;2024-02-26T11:42:08;100042.03;;;19.41;48.02
51053;BME280;37093;37.716;-122.060;2024-02-26T11:44:32;100039.57;;;19.56;48.43
51053;BME280;37093;37.716;-122.060;2024-02-26T11:46:54;100040.36;;;19.63;47.83
51053;BME280;37093;37.716;-122.060;2024-02-26T11:49:35;100036.73;;;19.69;47.97
51053;BME280;37093;37.716;-122.060;2024-02-26T11:51:43;100036.42;;;19.62;49.13
51053;BME280;37093;37.716;-122.060;2024-02-26T11:54:07;100038.64;;;19.28;50.23
51053;BME280;37093;37.716;-122.060;2024-02-26T11:56:35;100039.85;;;18.31;53.22
51053;BME280;37093;37.716;-122.060;2024-02-26T11:59:03;100028.36;;;16.75;57.83
51053;BME280;37093;37.716;-122.060;2024-02-26T12:01:58;100027.04;;;16.62;62.50
51053;BME280;37093;37.716;-122.060;2024-02-26T12:03:48;100025.51;;;16.10;65.24
51053;BME280;37093;37.716;-122.060;2024-02-26T12:06:13;100026.77;;;17.58;60.69
51053;BME280;37093;37.716;-122.060;2024-02-26T12:08:40;100027.58;;;18.66;56.41
51053;BME280;37093;37.716;-122.060;2024-02-26T12:11:05;100029.60;;;18.85;55.29